sensor_id;sensor_type;location;lat;lon;timestamp;temperature;humidity
10662;DHT22;5379;51.034;7.006;2023-12-20T00:18:39;10.10;99.90
10662;DHT22;5379;51.034;7.006;2023-12-20T00:26:02;10.10;99.90
10662;DHT22;5379;51.034;7.006;2023-12-20T00:28:28;10.30;99.90
10662;DHT22;5379;51.034;7.006;2023-12-20T00:30:55;10.30;99.90
10662;DHT22;5379;51.034;7.006;2023-12-20T00:35:49;10.30;99.90
10662;DHT22;5379;51.034;7.006;2023-12-20T00:45:39;9.70;99.90
10662;DHT22;5379;51.034;7.006;2023-12-20T00:53:00;9.60;99.90
10662;DHT22;5379;51.034;7.006;2023-12-20T05:30:58;8.70;99.90
10662;DHT22;5379;51.034;7.006;2023-12-20T05:33:25;8.70;99.90
10662;DHT22;5379;51.034;7.006;2023-12-20T05:35:51;8.60;99.90
10662;DHT22;5379;51.034;7.006;2023-12-20T05:38:18;8.90;99.90
10662;DHT22;5379;51.034;7.006;2023-12-20T05:40:45;9.00;99.90
10662;DHT22;5379;51.034;7.006;2023-12-20T06:33:05;9.20;99.90
10662;DHT22;5379;51.034;7.006;2023-12-20T06:35:35;9.20;99.90
10662;DHT22;5379;51.034;7.006;2023-12-20T06:38:02;8.80;99.90
10662;DHT22;5379;51.034;7.006;2023-12-20T06:40:29;8.90;99.90
10662;DHT22;5379;51.034;7.006;2023-12-20T06:42:55;8.80;99.90
10662;DHT22;5379;51.034;7.006;2023-12-20T06:45:22;8.80;99.90
10662;DHT22;5379;51.034;7.006;2023-12-20T06:52:44;8.90;99.90
10662;DHT22;5379;51.034;7.006;2023-12-20T06:57:38;9.00;99.90
10662;DHT22;5379;51.034;7.006;2023-12-20T07:00:07;9.00;99.90
10662;DHT22;5379;51.034;7.006;2023-12-20T07:05:01;9.20;99.90
10662;DHT22;5379;51.034;7.006;2023-12-20T07:12:24;9.10;99.90
10662;DHT22;5379;51.034;7.006;2023-12-20T07:14:50;9.10;99.90
10662;DHT22;5379;51.034;7.006;2023-12-20T07:17:17;9.40;99.90
10662;DHT22;5379;51.034;7.006;2023-12-20T07:19:44;9.40;99.90
10662;DHT22;5379;51.034;7.006;2023-12-20T07:24:39;9.40;99.90
10662;DHT22;5379;51.034;7.006;2023-12-20T07:29:33;9.10;99.90
10662;DHT22;5379;51.034;7.006;2023-12-20T07:32:00;8.90;99.90
10662;DHT22;5379;51.034;7.006;2023-12-20T07:36:54;9.20;99.90
10662;DHT22;5379;51.034;7.006;2023-12-20T07:39:21;9.20;99.90
10662;DHT22;5379;51.034;7.006;2023-12-20T07:49:10;9.30;99.90
10662;DHT22;5379;51.034;7.006;2023-12-20T07:51:37;9.20;99.90
10662;DHT22;5379;51.034;7.006;2023-12-20T08:01:29;9.40;99.90
10662;DHT22;5379;51.034;7.006;2023-12-20T08:26:04;9.40;99.90
10662;DHT22;5379;51.034;7.006;2023-12-20T08:28:31;9.50;99.90
10662;DHT22;5379;51.034;7.006;2023-12-20T08:38:21;9.40;99.90
10662;DHT22;5379;51.034;7.006;2023-12-20T08:45:42;9.30;99.90
10662;DHT22;5379;51.034;7.006;2023-12-20T08:48:09;9.20;99.90
10662;DHT22;5379;51.034;7.006;2023-12-20T09:05:22;9.00;99.90
10662;DHT22;5379;51.034;7.006;2023-12-20T09:10:18;9.00;99.90
10662;DHT22;5379;51.034;7.006;2023-12-20T09:17:42;9.10;99.90
10662;DHT22;5379;51.034;7.006;2023-12-20T09:25:09;9.10;99.90
10662;DHT22;5379;51.034;7.006;2023-12-20T09:27:36;9.00;99.90
10662;DHT22;5379;51.034;7.006;2023-12-20T09:34:58;9.10;99.90
10662;DHT22;5379;51.034;7.006;2023-12-20T09:39:53;9.20;99.90
10662;DHT22;5379;51.034;7.006;2023-12-20T09:42:28;9.30;99.90
10662;DHT22;5379;51.034;7.006;2023-12-20T09:44:57;9.30;99.90
10662;DHT22;5379;51.034;7.006;2023-12-20T09:49:54;9.40;99.90
10662;DHT22;5379;51.034;7.006;2023-12-20T09:52:24;9.60;99.90
10662;DHT22;5379;51.034;7.006;2023-12-20T09:54:52;9.60;99.90
10662;DHT22;5379;51.034;7.006;2023-12-20T10:02:17;9.40;99.90
10662;DHT22;5379;51.034;7.006;2023-12-20T10:04:47;9.50;99.90
10662;DHT22;5379;51.034;7.006;2023-12-20T10:12:09;9.60;99.90
10662;DHT22;5379;51.034;7.006;2023-12-20T10:14:36;9.50;99.90
10662;DHT22;5379;51.034;7.006;2023-12-20T10:17:05;9.30;99.90
10662;DHT22;5379;51.034;7.006;2023-12-20T10:19:33;9.30;99.90
10662;DHT22;5379;51.034;7.006;2023-12-20T10:24:28;9.40;99.90
10662;DHT22;5379;51.034;7.006;2023-12-20T10:36:54;9.50;99.90
10662;DHT22;5379;51.034;7.006;2023-12-20T10:41:48;9.30;99.90
10662;DHT22;5379;51.034;7.006;2023-12-20T10:46:43;9.40;99.90
10662;DHT22;5379;51.034;7.006;2023-12-20T10:49:17;9.50;99.90
10662;DHT22;5379;51.034;7.006;2023-12-20T10:59:11;9.60;99.90
10662;DHT22;5379;51.034;7.006;2023-12-20T11:01:39;9.60;99.90
10662;DHT22;5379;51.034;7.006;2023-12-20T11:04:09;9.70;99.90
10662;DHT22;5379;51.034;7.006;2023-12-20T11:06:45;9.80;99.90
10662;DHT22;5379;51.034;7.006;2023-12-20T11:09:22;9.90;99.90
10662;DHT22;5379;51.034;7.006;2023-12-20T11:11:59;9.90;99.90
10662;DHT22;5379;51.034;7.006;2023-12-20T11:14:33;10.00;99.90
10662;DHT22;5379;51.034;7.006;2023-12-20T11:19:38;9.60;99.90
10662;DHT22;5379;51.034;7.006;2023-12-20T11:29:35;10.10;99.90
10662;DHT22;5379;51.034;7.006;2023-12-20T11:32:28;10.10;99.90
10662;DHT22;5379;51.034;7.006;2023-12-20T11:34:56;10.20;99.90
10662;DHT22;5379;51.034;7.006;2023-12-20T11:40:01;9.90;99.90
10662;DHT22;5379;51.034;7.006;2023-12-20T11:42:32;9.90;99.90
10662;DHT22;5379;51.034;7.006;2023-12-20T11:45:01;9.90;99.90
10662;DHT22;5379;51.034;7.006;2023-12-20T11:47:29;10.20;99.90
10662;DHT22;5379;51.034;7.006;2023-12-20T11:54:53;9.60;99.90
10662;DHT22;5379;51.034;7.006;2023-12-20T12:02:15;9.80;99.90
10662;DHT22;5379;51.034;7.006;2023-12-20T12:04:42;9.90;99.90
10662;DHT22;5379;51.034;7.006;2023-12-20T12:09:36;10.20;99.90
10662;DHT22;5379;51.034;7.006;2023-12-20T12:12:04;11.90;99.90
10662;DHT22;5379;51.034;7.006;2023-12-20T12:24:33;10.20;99.90
10662;DHT22;5379;51.034;7.006;2023-12-20T12:26:59;10.10;99.90
10662;DHT22;5379;51.034;7.006;2023-12-20T12:29:27;10.00;99.90
10662;DHT22;5379;51.034;7.006;2023-12-20T12:36:52;9.90;99.90
10662;DHT22;5379;51.034;7.006;2023-12-20T12:39:19;9.90;99.90
10662;DHT22;5379;51.034;7.006;2023-12-20T12:41:46;9.80;99.90
10662;DHT22;5379;51.034;7.006;2023-12-20T12:44:13;9.80;99.90
10662;DHT22;5379;51.034;7.006;2023-12-20T12:49:08;9.90;99.90
10662;DHT22;5379;51.034;7.006;2023-12-20T12:51:35;9.70;99.90
10662;DHT22;5379;51.034;7.006;2023-12-20T12:56:29;9.80;99.90
10662;DHT22;5379;51.034;7.006;2023-12-20T12:58:56;9.80;99.90
10662;DHT22;5379;51.034;7.006;2023-12-20T13:01:23;9.80;99.90
10662;DHT22;5379;51.034;7.006;2023-12-20T13:03:50;9.80;99.90
10662;DHT22;5379;51.034;7.006;2023-12-20T13:06:18;10.00;99.90
10662;DHT22;5379;51.034;7.006;2023-12-20T13:08:45;9.90;99.90
10662;DHT22;5379;51.034;7.006;2023-12-20T13:11:12;10.00;99.90
10662;DHT22;5379;51.034;7.006;2023-12-20T13:13:39;10.00;99.90
10662;DHT22;5379;51.034;7.006;2023-12-20T13:16:06;9.80;99.90
10662;DHT22;5379;51.034;7.006;2023-12-20T13:18:33;9.70;99.90
10662;DHT22;5379;51.034;7.006;2023-12-20T13:20:59;9.70;99.90
10662;DHT22;5379;51.034;7.006;2023-12-20T13:23:28;9.80;99.90
10662;DHT22;5379;51.034;7.006;2023-12-20T13:25:54;9.80;99.90
10662;DHT22;5379;51.034;7.006;2023-12-20T13:28:21;9.80;99.90
10662;DHT22;5379;51.034;7.006;2023-12-20T13:30:48;9.70;99.90
10662;DHT22;5379;51.034;7.006;2023-12-20T13:33:15;9.90;99.90
10662;DHT22;5379;51.034;7.006;2023-12-20T13:35:41;10.00;99.90
10662;DHT22;5379;51.034;7.006;2023-12-20T13:38:08;10.00;99.90
10662;DHT22;5379;51.034;7.006;2023-12-20T13:40:36;10.00;99.90
10662;DHT22;5379;51.034;7.006;2023-12-20T13:43:03;10.00;99.90
10662;DHT22;5379;51.034;7.006;2023-12-20T13:45:31;9.90;99.90
10662;DHT22;5379;51.034;7.006;2023-12-20T13:47:58;9.90;99.90
10662;DHT22;5379;51.034;7.006;2023-12-20T13:50:25;9.80;99.90
10662;DHT22;5379;51.034;7.006;2023-12-20T13:52:52;9.70;99.90
10662;DHT22;5379;51.034;7.006;2023-12-20T13:55:19;9.60;99.90
10662;DHT22;5379;51.034;7.006;2023-12-20T13:57:49;9.60;99.90
10662;DHT22;5379;51.034;7.006;2023-12-20T14:00:16;9.50;99.90
10662;DHT22;5379;51.034;7.006;2023-12-20T14:02:43;9.80;99.90
10662;DHT22;5379;51.034;7.006;2023-12-20T14:05:09;9.90;99.90
10662;DHT22;5379;51.034;7.006;2023-12-20T14:07:36;10.30;99.90
10662;DHT22;5379;51.034;7.006;2023-12-20T14:10:04;10.80;99.90
10662;DHT22;5379;51.034;7.006;2023-12-20T14:12:31;10.80;99.90
10662;DHT22;5379;51.034;7.006;2023-12-20T14:15:03;11.70;99.90
10662;DHT22;5379;51.034;7.006;2023-12-20T14:17:34;11.60;99.90
10662;DHT22;5379;51.034;7.006;2023-12-20T14:20:01;11.50;99.90
10662;DHT22;5379;51.034;7.006;2023-12-20T14:22:28;12.30;99.90
10662;DHT22;5379;51.034;7.006;2023-12-20T14:24:55;13.80;99.90
10662;DHT22;5379;51.034;7.006;2023-12-20T14:27:22;12.70;99.90
10662;DHT22;5379;51.034;7.006;2023-12-20T14:29:50;11.90;99.90
10662;DHT22;5379;51.034;7.006;2023-12-20T14:32:18;12.00;99.90
10662;DHT22;5379;51.034;7.006;2023-12-20T14:34:45;11.60;99.90
10662;DHT22;5379;51.034;7.006;2023-12-20T14:37:12;12.20;99.90
10662;DHT22;5379;51.034;7.006;2023-12-20T14:39:38;11.80;99.90
10662;DHT22;5379;51.034;7.006;2023-12-20T14:42:07;11.80;99.90
10662;DHT22;5379;51.034;7.006;2023-12-20T14:44:36;11.70;99.90
10662;DHT22;5379;51.034;7.006;2023-12-20T14:47:03;11.80;99.90
10662;DHT22;5379;51.034;7.006;2023-12-20T14:49:32;12.20;99.90
10662;DHT22;5379;51.034;7.006;2023-12-20T14:51:58;11.60;99.90
10662;DHT22;5379;51.034;7.006;2023-12-20T14:54:25;11.60;99.90
10662;DHT22;5379;51.034;7.006;2023-12-20T14:56:52;11.90;99.90
10662;DHT22;5379;51.034;7.006;2023-12-20T14:59:19;12.10;99.90
10662;DHT22;5379;51.034;7.006;2023-12-20T15:01:46;11.80;99.90
10662;DHT22;5379;51.034;7.006;2023-12-20T15:04:13;11.70;99.90
10662;DHT22;5379;51.034;7.006;2023-12-20T15:06:42;11.20;99.90
10662;DHT22;5379;51.034;7.006;2023-12-20T15:09:10;11.30;99.90
10662;DHT22;5379;51.034;7.006;2023-12-20T15:11:37;11.10;99.90
10662;DHT22;5379;51.034;7.006;2023-12-20T15:14:03;11.60;99.90
10662;DHT22;5379;51.034;7.006;2023-12-20T15:16:30;11.80;99.90
10662;DHT22;5379;51.034;7.006;2023-12-20T15:18:57;11.90;99.90
10662;DHT22;5379;51.034;7.006;2023-12-20T15:21:24;12.30;99.90
10662;DHT22;5379;51.034;7.006;2023-12-20T15:23:58;12.50;99.90
10662;DHT22;5379;51.034;7.006;2023-12-20T15:26:38;11.80;99.90
10662;DHT22;5379;51.034;7.006;2023-12-20T15:29:05;11.70;99.90
10662;DHT22;5379;51.034;7.006;2023-12-20T15:31:34;11.80;99.90
10662;DHT22;5379;51.034;7.006;2023-12-20T15:34:02;13.70;99.90
10662;DHT22;5379;51.034;7.006;2023-12-20T15:36:29;13.90;99.90
10662;DHT22;5379;51.034;7.006;2023-12-20T15:38:55;16.10;99.90
10662;DHT22;5379;51.034;7.006;2023-12-20T15:41:23;16.00;99.90
10662;DHT22;5379;51.034;7.006;2023-12-20T15:43:50;14.60;99.90
10662;DHT22;5379;51.034;7.006;2023-12-20T15:46:17;13.00;99.90
10662;DHT22;5379;51.034;7.006;2023-12-20T15:48:44;13.10;99.90
10662;DHT22;5379;51.034;7.006;2023-12-20T15:51:10;12.90;99.90
10662;DHT22;5379;51.034;7.006;2023-12-20T15:53:38;12.50;99.90
10662;DHT22;5379;51.034;7.006;2023-12-20T15:56:06;12.40;99.90
10662;DHT22;5379;51.034;7.006;2023-12-20T15:58:34;13.00;99.90
10662;DHT22;5379;51.034;7.006;2023-12-20T16:01:01;13.60;99.90
10662;DHT22;5379;51.034;7.006;2023-12-20T16:03:28;12.20;99.90
10662;DHT22;5379;51.034;7.006;2023-12-20T16:05:55;11.80;99.90
10662;DHT22;5379;51.034;7.006;2023-12-20T16:08:24;12.00;99.90
10662;DHT22;5379;51.034;7.006;2023-12-20T16:10:51;11.60;99.90
10662;DHT22;5379;51.034;7.006;2023-12-20T16:13:18;11.40;99.90
10662;DHT22;5379;51.034;7.006;2023-12-20T16:15:47;11.00;99.90
10662;DHT22;5379;51.034;7.006;2023-12-20T16:18:14;10.70;99.90
10662;DHT22;5379;51.034;7.006;2023-12-20T16:20:41;10.80;99.90
10662;DHT22;5379;51.034;7.006;2023-12-20T16:23:08;11.00;99.90
10662;DHT22;5379;51.034;7.006;2023-12-20T16:25:35;11.00;99.90
10662;DHT22;5379;51.034;7.006;2023-12-20T16:28:04;11.30;99.90
10662;DHT22;5379;51.034;7.006;2023-12-20T16:30:33;10.90;99.90
10662;DHT22;5379;51.034;7.006;2023-12-20T16:35:41;10.50;99.90
10662;DHT22;5379;51.034;7.006;2023-12-20T16:38:21;10.20;99.90
10662;DHT22;5379;51.034;7.006;2023-12-20T16:50:45;10.20;99.90
10662;DHT22;5379;51.034;7.006;2023-12-20T16:53:13;10.10;99.90
10662;DHT22;5379;51.034;7.006;2023-12-20T16:55:41;10.10;99.90
10662;DHT22;5379;51.034;7.006;2023-12-20T16:58:09;12.30;99.90
10662;DHT22;5379;51.034;7.006;2023-12-20T17:00:37;10.20;99.90
10662;DHT22;5379;51.034;7.006;2023-12-20T17:03:05;10.20;99.90
10662;DHT22;5379;51.034;7.006;2023-12-20T17:05:34;10.10;99.90
10662;DHT22;5379;51.034;7.006;2023-12-20T17:08:27;10.10;99.90
10662;DHT22;5379;51.034;7.006;2023-12-20T17:13:22;10.10;99.90
10662;DHT22;5379;51.034;7.006;2023-12-20T17:15:50;10.30;99.90
10662;DHT22;5379;51.034;7.006;2023-12-20T17:18:17;10.30;99.90
10662;DHT22;5379;51.034;7.006;2023-12-20T17:20:45;10.30;99.90
10662;DHT22;5379;51.034;7.006;2023-12-20T17:23:12;10.40;99.90
10662;DHT22;5379;51.034;7.006;2023-12-20T17:25:40;10.40;99.90
10662;DHT22;5379;51.034;7.006;2023-12-20T17:30:49;10.80;99.90
10662;DHT22;5379;51.034;7.006;2023-12-20T17:33:16;10.70;99.90
10662;DHT22;5379;51.034;7.006;2023-12-20T17:35:44;10.50;99.90
10662;DHT22;5379;51.034;7.006;2023-12-20T17:40:40;10.60;99.90
10662;DHT22;5379;51.034;7.006;2023-12-20T17:43:07;10.70;99.90
10662;DHT22;5379;51.034;7.006;2023-12-20T17:45:35;10.80;99.90
10662;DHT22;5379;51.034;7.006;2023-12-20T17:48:03;10.80;99.90
10662;DHT22;5379;51.034;7.006;2023-12-20T17:50:30;11.10;99.90
10662;DHT22;5379;51.034;7.006;2023-12-20T17:52:59;10.90;99.90
10662;DHT22;5379;51.034;7.006;2023-12-20T17:55:26;10.80;99.90
10662;DHT22;5379;51.034;7.006;2023-12-20T17:57:53;10.70;99.90
10662;DHT22;5379;51.034;7.006;2023-12-20T18:00:23;10.60;99.90
10662;DHT22;5379;51.034;7.006;2023-12-20T18:02:51;11.00;99.90
10662;DHT22;5379;51.034;7.006;2023-12-20T18:05:18;10.90;99.90
10662;DHT22;5379;51.034;7.006;2023-12-20T18:10:15;11.10;99.90
10662;DHT22;5379;51.034;7.006;2023-12-20T18:12:42;11.10;99.90
10662;DHT22;5379;51.034;7.006;2023-12-20T18:15:10;11.10;99.90
10662;DHT22;5379;51.034;7.006;2023-12-20T18:17:37;11.10;99.90
10662;DHT22;5379;51.034;7.006;2023-12-20T18:20:05;12.40;99.90
10662;DHT22;5379;51.034;7.006;2023-12-20T18:22:32;10.90;99.90
10662;DHT22;5379;51.034;7.006;2023-12-20T18:24:58;11.20;99.90
10662;DHT22;5379;51.034;7.006;2023-12-20T18:27:26;12.80;99.90
10662;DHT22;5379;51.034;7.006;2023-12-20T18:29:53;11.20;99.90
10662;DHT22;5379;51.034;7.006;2023-12-20T18:32:20;12.10;99.90
10662;DHT22;5379;51.034;7.006;2023-12-20T18:37:14;11.00;99.90
10662;DHT22;5379;51.034;7.006;2023-12-20T18:39:41;11.40;99.90
10662;DHT22;5379;51.034;7.006;2023-12-20T18:42:07;11.40;99.90
10662;DHT22;5379;51.034;7.006;2023-12-20T18:44:36;11.20;99.90
10662;DHT22;5379;51.034;7.006;2023-12-20T18:47:03;12.20;99.90
10662;DHT22;5379;51.034;7.006;2023-12-20T18:49:30;12.50;99.90
10662;DHT22;5379;51.034;7.006;2023-12-20T18:51:57;12.40;99.90
10662;DHT22;5379;51.034;7.006;2023-12-20T18:54:24;12.50;99.90
10662;DHT22;5379;51.034;7.006;2023-12-20T18:56:51;11.90;99.90
10662;DHT22;5379;51.034;7.006;2023-12-20T18:59:18;11.70;99.90
10662;DHT22;5379;51.034;7.006;2023-12-20T19:01:48;11.90;99.90
10662;DHT22;5379;51.034;7.006;2023-12-20T19:04:15;11.80;99.90
10662;DHT22;5379;51.034;7.006;2023-12-20T19:06:42;11.90;99.90
10662;DHT22;5379;51.034;7.006;2023-12-20T19:09:09;11.80;99.90
10662;DHT22;5379;51.034;7.006;2023-12-20T19:11:36;12.40;99.90
10662;DHT22;5379;51.034;7.006;2023-12-20T19:14:03;12.30;99.90
10662;DHT22;5379;51.034;7.006;2023-12-20T19:18:59;12.10;99.90
10662;DHT22;5379;51.034;7.006;2023-12-20T19:21:25;12.70;99.90
10662;DHT22;5379;51.034;7.006;2023-12-20T19:23:52;13.00;99.90
10662;DHT22;5379;51.034;7.006;2023-12-20T19:26:19;13.00;99.90
10662;DHT22;5379;51.034;7.006;2023-12-20T19:28:46;13.10;99.90
10662;DHT22;5379;51.034;7.006;2023-12-20T19:31:13;12.60;99.90
10662;DHT22;5379;51.034;7.006;2023-12-20T19:33:40;12.30;99.90
10662;DHT22;5379;51.034;7.006;2023-12-20T19:36:09;12.90;99.90
10662;DHT22;5379;51.034;7.006;2023-12-20T19:38:36;11.60;99.90
10662;DHT22;5379;51.034;7.006;2023-12-20T19:41:03;11.30;99.90
10662;DHT22;5379;51.034;7.006;2023-12-20T19:43:31;11.00;99.90
10662;DHT22;5379;51.034;7.006;2023-12-20T19:45:57;11.10;99.90
10662;DHT22;5379;51.034;7.006;2023-12-20T19:53:21;11.20;99.90
10662;DHT22;5379;51.034;7.006;2023-12-20T19:55:48;11.30;99.90
10662;DHT22;5379;51.034;7.006;2023-12-20T19:58:15;11.50;99.90
10662;DHT22;5379;51.034;7.006;2023-12-20T20:00:42;11.30;99.90
10662;DHT22;5379;51.034;7.006;2023-12-20T20:03:09;11.40;99.90
10662;DHT22;5379;51.034;7.006;2023-12-20T20:05:35;11.40;99.90
10662;DHT22;5379;51.034;7.006;2023-12-20T20:08:03;12.20;99.90
10662;DHT22;5379;51.034;7.006;2023-12-20T20:10:31;11.60;99.90
10662;DHT22;5379;51.034;7.006;2023-12-20T20:12:58;11.80;99.90
10662;DHT22;5379;51.034;7.006;2023-12-20T20:15:26;11.80;99.90
10662;DHT22;5379;51.034;7.006;2023-12-20T20:17:53;12.70;99.90
10662;DHT22;5379;51.034;7.006;2023-12-20T20:20:20;11.70;99.90
10662;DHT22;5379;51.034;7.006;2023-12-20T20:22:47;12.10;99.90
10662;DHT22;5379;51.034;7.006;2023-12-20T20:25:14;11.90;99.90
10662;DHT22;5379;51.034;7.006;2023-12-20T20:27:43;12.20;99.90
10662;DHT22;5379;51.034;7.006;2023-12-20T20:30:10;11.90;99.90
10662;DHT22;5379;51.034;7.006;2023-12-20T20:32:37;11.80;99.90
10662;DHT22;5379;51.034;7.006;2023-12-20T20:35:05;11.80;99.90
10662;DHT22;5379;51.034;7.006;2023-12-20T20:37:32;11.70;99.90
10662;DHT22;5379;51.034;7.006;2023-12-20T20:39:59;11.70;99.90
10662;DHT22;5379;51.034;7.006;2023-12-20T20:42:25;11.60;99.90
10662;DHT22;5379;51.034;7.006;2023-12-20T20:44:55;11.60;99.90
10662;DHT22;5379;51.034;7.006;2023-12-20T20:47:22;11.60;99.90
10662;DHT22;5379;51.034;7.006;2023-12-20T20:49:48;11.70;99.90
10662;DHT22;5379;51.034;7.006;2023-12-20T20:52:15;11.70;99.90
10662;DHT22;5379;51.034;7.006;2023-12-20T20:54:42;11.70;99.90
10662;DHT22;5379;51.034;7.006;2023-12-20T20:57:09;11.80;99.90
10662;DHT22;5379;51.034;7.006;2023-12-20T20:59:36;11.70;99.90
10662;DHT22;5379;51.034;7.006;2023-12-20T21:02:08;11.90;99.90
10662;DHT22;5379;51.034;7.006;2023-12-20T21:04:35;11.70;99.90
10662;DHT22;5379;51.034;7.006;2023-12-20T21:07:01;11.60;99.90
10662;DHT22;5379;51.034;7.006;2023-12-20T21:09:28;11.60;99.90
10662;DHT22;5379;51.034;7.006;2023-12-20T21:11:55;11.50;99.90
10662;DHT22;5379;51.034;7.006;2023-12-20T21:14:22;11.40;99.90
10662;DHT22;5379;51.034;7.006;2023-12-20T21:16:48;11.50;99.90
10662;DHT22;5379;51.034;7.006;2023-12-20T21:19:17;12.00;99.90
10662;DHT22;5379;51.034;7.006;2023-12-20T21:21:43;12.00;99.90
10662;DHT22;5379;51.034;7.006;2023-12-20T21:24:11;12.20;99.90
10662;DHT22;5379;51.034;7.006;2023-12-20T21:26:39;12.00;99.90
10662;DHT22;5379;51.034;7.006;2023-12-20T21:31:35;11.90;99.90
10662;DHT22;5379;51.034;7.006;2023-12-20T21:34:01;11.70;99.90
10662;DHT22;5379;51.034;7.006;2023-12-20T21:36:29;11.70;99.90
10662;DHT22;5379;51.034;7.006;2023-12-20T21:38:56;11.70;99.90
10662;DHT22;5379;51.034;7.006;2023-12-20T21:41:23;12.30;99.90
10662;DHT22;5379;51.034;7.006;2023-12-20T21:43:50;12.00;99.90
10662;DHT22;5379;51.034;7.006;2023-12-20T21:46:18;11.80;99.90
10662;DHT22;5379;51.034;7.006;2023-12-20T21:48:45;11.70;99.90
10662;DHT22;5379;51.034;7.006;2023-12-20T21:51:12;11.90;99.90
10662;DHT22;5379;51.034;7.006;2023-12-20T21:53:40;11.90;99.90
10662;DHT22;5379;51.034;7.006;2023-12-20T21:56:07;12.20;99.90
10662;DHT22;5379;51.034;7.006;2023-12-20T21:58:37;12.10;99.90
10662;DHT22;5379;51.034;7.006;2023-12-20T22:01:04;11.90;99.90
10662;DHT22;5379;51.034;7.006;2023-12-20T22:03:30;11.80;99.90
10662;DHT22;5379;51.034;7.006;2023-12-20T22:05:57;11.80;99.90
10662;DHT22;5379;51.034;7.006;2023-12-20T22:08:24;11.70;99.90
10662;DHT22;5379;51.034;7.006;2023-12-20T22:10:52;11.80;99.90
10662;DHT22;5379;51.034;7.006;2023-12-20T22:13:19;11.80;99.90
10662;DHT22;5379;51.034;7.006;2023-12-20T22:15:46;11.80;99.90
10662;DHT22;5379;51.034;7.006;2023-12-20T22:18:14;11.90;99.90
10662;DHT22;5379;51.034;7.006;2023-12-20T22:20:40;11.80;99.90
10662;DHT22;5379;51.034;7.006;2023-12-20T22:23:07;11.80;99.90
10662;DHT22;5379;51.034;7.006;2023-12-20T22:25:34;11.70;99.90
10662;DHT22;5379;51.034;7.006;2023-12-20T22:28:02;11.80;99.90
10662;DHT22;5379;51.034;7.006;2023-12-20T22:30:29;11.70;99.90
10662;DHT22;5379;51.034;7.006;2023-12-20T22:32:56;11.60;99.90
10662;DHT22;5379;51.034;7.006;2023-12-20T22:35:23;11.80;99.90
10662;DHT22;5379;51.034;7.006;2023-12-20T22:37:51;11.50;99.90
10662;DHT22;5379;51.034;7.006;2023-12-20T22:40:19;11.40;99.90
10662;DHT22;5379;51.034;7.006;2023-12-20T22:45:14;11.20;99.90
10662;DHT22;5379;51.034;7.006;2023-12-20T22:47:40;11.00;99.90
10662;DHT22;5379;51.034;7.006;2023-12-20T22:50:09;11.20;99.90
10662;DHT22;5379;51.034;7.006;2023-12-20T22:52:35;11.40;99.90
10662;DHT22;5379;51.034;7.006;2023-12-20T22:55:03;11.20;99.90
10662;DHT22;5379;51.034;7.006;2023-12-20T22:57:30;11.20;99.90
10662;DHT22;5379;51.034;7.006;2023-12-20T22:59:56;11.10;99.90
10662;DHT22;5379;51.034;7.006;2023-12-20T23:08:51;11.10;99.90
10662;DHT22;5379;51.034;7.006;2023-12-20T23:13:54;11.00;99.90
10662;DHT22;5379;51.034;7.006;2023-12-20T23:16:21;11.20;99.90
10662;DHT22;5379;51.034;7.006;2023-12-20T23:18:47;11.20;99.90
10662;DHT22;5379;51.034;7.006;2023-12-20T23:21:15;11.30;99.90
10662;DHT22;5379;51.034;7.006;2023-12-20T23:23:42;11.10;99.90
10662;DHT22;5379;51.034;7.006;2023-12-20T23:26:10;11.20;99.90
10662;DHT22;5379;51.034;7.006;2023-12-20T23:28:37;11.10;99.90
10662;DHT22;5379;51.034;7.006;2023-12-20T23:31:06;11.30;99.90
10662;DHT22;5379;51.034;7.006;2023-12-20T23:33:32;11.80;99.90
10662;DHT22;5379;51.034;7.006;2023-12-20T23:35:59;11.50;99.90
10662;DHT22;5379;51.034;7.006;2023-12-20T23:38:27;11.30;99.90
10662;DHT22;5379;51.034;7.006;2023-12-20T23:40:54;11.50;99.90
10662;DHT22;5379;51.034;7.006;2023-12-20T23:43:21;11.80;99.90
10662;DHT22;5379;51.034;7.006;2023-12-20T23:45:47;11.70;99.90
10662;DHT22;5379;51.034;7.006;2023-12-20T23:48:14;11.40;99.90
10662;DHT22;5379;51.034;7.006;2023-12-20T23:50:41;11.40;99.90
10662;DHT22;5379;51.034;7.006;2023-12-20T23:53:08;11.50;99.90
10662;DHT22;5379;51.034;7.006;2023-12-20T23:55:36;11.40;99.90
10662;DHT22;5379;51.034;7.006;2023-12-20T23:58:03;11.30;99.90
